Time;durP1;ratioP1;P1;durP2;ratioP2;P2;SDS_P1;SDS_P2;PMS_P1;PMS_P2;Temp;Humidity;BMP_temperature;BMP_pressure;BME280_temperature;BME280_humidity;BME280_pressure;Samples;Min_cycle;Max_cycle;Signal;HPM_P1;HPM_P2
2022/06/08 00:01:37;;;;;;;5.18;4.68;;;19.10;65.60;;;;;;6195166;23;20627;-88
2022/06/08 00:04:03;;;;;;;5.47;4.45;;;19.10;65.60;;;;;;6195986;23;20197;-88
2022/06/08 00:06:28;;;;;;;6.28;4.68;;;19.10;65.70;;;;;;6170127;23;20327;-88
2022/06/08 00:08:55;;;;;;;5.93;4.63;;;19.10;65.60;;;;;;6171001;23;20211;-88
2022/06/08 00:11:21;;;;;;;5.13;4.35;;;19.10;65.60;;;;;;6169781;23;20608;-88
2022/06/08 00:13:47;;;;;;;5.45;4.47;;;19.10;65.60;;;;;;6219947;23;20175;-88
2022/06/08 00:16:13;;;;;;;5.88;4.30;;;19.00;65.60;;;;;;6169894;23;20145;-87
2022/06/08 00:18:40;;;;;;;5.00;4.50;;;19.10;66.50;;;;;;6169780;23;20137;-87
2022/06/08 00:21:09;;;;;;;5.00;4.50;;;19.10;65.60;;;;;;6194980;23;20642;-87
2022/06/08 00:23:37;;;;;;;5.10;4.45;;;19.10;65.80;;;;;;6195194;23;20156;-88
2022/06/08 00:26:04;;;;;;;4.40;4.00;;;19.10;65.70;;;;;;6170567;23;20195;-88
2022/06/08 00:28:31;;;;;;;5.13;4.63;;;19.10;65.80;;;;;;6169834;23;20531;-89
2022/06/08 00:30:59;;;;;;;5.93;4.50;;;19.10;65.80;;;;;;6194813;23;20243;-87
2022/06/08 00:33:25;;;;;;;5.00;4.50;;;19.00;65.80;;;;;;6169680;23;20148;-88
2022/06/08 00:35:51;;;;;;;5.45;4.65;;;19.10;65.80;;;;;;6194754;23;20134;-88
2022/06/08 00:38:17;;;;;;;5.35;4.85;;;19.10;65.80;;;;;;6195058;23;20229;-88
2022/06/08 00:41:02;;;;;;;5.03;4.53;;;19.10;65.80;;;;;;6194677;23;20542;-87
2022/06/08 00:43:28;;;;;;;5.15;4.65;;;19.10;65.90;;;;;;6195343;23;20172;-87
2022/06/08 00:45:55;;;;;;;5.90;4.80;;;19.10;65.90;;;;;;6169603;23;20149;-88
2022/06/08 00:48:25;;;;;;;5.13;4.63;;;19.10;65.90;;;;;;6169567;23;20639;-87
2022/06/08 00:50:53;;;;;;;4.97;4.47;;;19.10;65.80;;;;;;6194744;23;20200;-88
2022/06/08 00:53:27;;;;;;;5.07;4.57;;;19.00;65.80;;;;;;6170138;23;20137;-88
2022/06/08 00:55:53;;;;;;;5.22;4.65;;;19.00;65.80;;;;;;6170274;23;20148;-87
2022/06/08 00:58:24;;;;;;;5.20;4.60;;;19.00;65.80;;;;;;6194658;23;20134;-87
2022/06/08 01:00:50;;;;;;;4.70;4.30;;;19.00;65.90;;;;;;6170473;23;20232;-88
2022/06/08 01:03:17;;;;;;;5.82;4.68;;;19.10;65.90;;;;;;6194776;23;20148;-87
2022/06/08 01:05:46;;;;;;;5.15;4.63;;;19.00;65.80;;;;;;6142801;23;20205;-87
2022/06/08 01:08:26;;;;;;;5.30;4.80;;;19.00;65.80;;;;;;6140486;23;20584;-87
2022/06/08 01:10:53;;;;;;;5.60;4.22;;;19.00;65.90;;;;;;6190408;23;20165;-88
2022/06/08 01:13:20;;;;;;;5.35;4.85;;;19.00;65.80;;;;;;6165388;23;20479;-88
2022/06/08 01:15:48;;;;;;;5.20;4.70;;;19.10;65.90;;;;;;6189320;23;20298;-88
2022/06/08 01:18:13;;;;;;;5.40;4.90;;;19.10;65.80;;;;;;6164416;23;20173;-88
2022/06/08 01:20:47;;;;;;;6.72;4.72;;;19.00;65.80;;;;;;6164882;23;20142;-88
2022/06/08 01:23:15;;;;;;;5.35;4.82;;;19.00;65.90;;;;;;6165120;23;20439;-88
2022/06/08 01:26:04;;;;;;;5.03;4.53;;;19.00;65.90;;;;;;6164569;23;20150;-88
2022/06/08 01:28:46;;;;;;;5.25;4.70;;;19.10;65.90;;;;;;6167818;23;20134;-88
2022/06/08 01:31:19;;;;;;;5.38;4.82;;;19.10;66.70;;;;;;6169130;23;20237;-87
2022/06/08 01:33:56;;;;;;;6.07;4.57;;;19.00;66.70;;;;;;6142452;23;20463;-87
2022/06/08 01:36:38;;;;;;;5.07;4.57;;;19.00;65.80;;;;;;6143512;23;20221;-88
2022/06/08 01:39:17;;;;;;;5.20;4.70;;;19.00;65.70;;;;;;6161643;23;20138;-87
2022/06/08 01:41:57;;;;;;;4.95;4.50;;;19.00;65.90;;;;;;6164236;23;20157;-88
2022/06/08 01:48:07;;;;;;;4.70;4.30;;;19.00;65.90;;;;;;6196702;23;20143;-88
2022/06/08 01:50:52;;;;;;;6.03;4.68;;;19.00;65.90;;;;;;6194208;23;20174;-88
2022/06/08 01:53:44;;;;;;;5.05;4.55;;;19.00;66.70;;;;;;6148152;23;20142;-88
2022/06/08 01:56:33;;;;;;;5.30;4.80;;;19.00;65.80;;;;;;6157718;23;20166;-88
2022/06/08 01:59:27;;;;;;;5.38;4.55;;;19.00;65.80;;;;;;6166068;23;20174;-88
2022/06/08 02:02:16;;;;;;;4.70;4.25;;;19.10;65.80;;;;;;6165685;23;20146;-88
2022/06/08 02:04:50;;;;;;;4.85;4.35;;;19.00;65.80;;;;;;6166719;23;20688;-88
2022/06/08 02:07:28;;;;;;;6.45;5.18;;;19.00;65.80;;;;;;6190815;23;20669;-87
2022/06/08 02:10:28;;;;;;;6.13;5.22;;;18.90;65.70;;;;;;6166812;23;20177;-87
2022/06/08 02:12:58;;;;;;;4.97;4.53;;;19.00;65.80;;;;;;6190813;23;20455;-88
2022/06/08 02:15:35;;;;;;;5.30;4.80;;;19.00;65.80;;;;;;6190772;23;20150;-87
2022/06/08 02:18:06;;;;;;;5.55;4.85;;;19.00;65.70;;;;;;6215764;23;20125;-88
2022/06/08 02:20:36;;;;;;;5.50;4.93;;;19.00;65.80;;;;;;6215945;23;20204;-87
2022/06/08 02:23:08;;;;;;;5.00;4.50;;;18.90;65.60;;;;;;6189974;23;20233;-88
2022/06/08 02:25:39;;;;;;;5.72;4.60;;;19.00;65.70;;;;;;6215492;23;20543;-88
2022/06/08 02:28:09;;;;;;;5.50;4.90;;;19.00;65.70;;;;;;6190661;23;20153;-87
2022/06/08 02:30:40;;;;;;;4.82;4.32;;;19.00;65.80;;;;;;6190554;23;20230;-88
2022/06/08 02:35:58;;;;;;;4.95;4.45;;;19.00;65.80;;;;;;6215980;23;20187;-88
2022/06/08 02:38:32;;;;;;;4.97;4.47;;;19.00;65.80;;;;;;6189400;23;20146;-87
2022/06/08 02:40:59;;;;;;;5.60;4.80;;;19.00;65.80;;;;;;6165995;23;20149;-88
2022/06/08 02:43:32;;;;;;;5.82;4.80;;;19.00;65.70;;;;;;6190623;23;20142;-87
2022/06/08 02:46:06;;;;;;;5.43;4.72;;;19.00;65.80;;;;;;6166408;23;20225;-88
2022/06/08 02:48:32;;;;;;;5.57;4.70;;;19.00;65.80;;;;;;6190607;23;20233;-88
2022/06/08 02:50:59;;;;;;;6.00;4.38;;;19.00;65.80;;;;;;6166733;23;20182;-87
2022/06/08 02:53:50;;;;;;;5.00;4.50;;;19.00;65.80;;;;;;6190554;23;20142;-88
2022/06/08 02:56:40;;;;;;;5.07;4.57;;;19.00;65.70;;;;;;6170133;23;20145;-88
2022/06/08 02:59:30;;;;;;;5.32;4.82;;;19.00;65.80;;;;;;6194519;23;20134;-88
2022/06/08 03:02:20;;;;;;;5.18;4.68;;;19.00;65.80;;;;;;6216835;23;20134;-87
2022/06/08 03:04:54;;;;;;;5.68;4.90;;;19.00;65.80;;;;;;6165953;23;20201;-88
2022/06/08 03:07:24;;;;;;;5.53;4.63;;;18.90;65.80;;;;;;6165603;23;20240;-87
2022/06/08 03:09:52;;;;;;;5.45;4.80;;;18.90;65.80;;;;;;6190302;23;20212;-87
2022/06/08 03:12:38;;;;;;;4.70;4.30;;;19.00;65.80;;;;;;6190868;23;20137;-87
2022/06/08 03:15:08;;;;;;;5.05;4.55;;;19.00;65.90;;;;;;6166271;23;20443;-87
2022/06/08 03:17:36;;;;;;;5.50;4.50;;;18.90;65.70;;;;;;6165638;23;20222;-88
2022/06/08 03:20:04;;;;;;;5.22;4.38;;;19.00;65.80;;;;;;6190644;23;20138;-88
2022/06/08 03:22:31;;;;;;;5.20;4.70;;;18.90;65.80;;;;;;6141040;23;20153;-88
2022/06/08 03:24:57;;;;;;;4.93;4.43;;;19.00;65.90;;;;;;6190933;23;20147;-88
2022/06/08 03:27:22;;;;;;;5.13;4.28;;;18.90;65.70;;;;;;6165598;23;20181;-87
2022/06/08 03:29:48;;;;;;;4.93;4.40;;;18.90;65.70;;;;;;6165558;23;20181;-88
2022/06/08 03:32:14;;;;;;;4.80;4.35;;;19.00;65.60;;;;;;6190516;23;20134;-88
2022/06/08 03:34:42;;;;;;;5.82;4.82;;;18.90;65.60;;;;;;6190156;23;20142;-88
2022/06/08 03:37:09;;;;;;;5.25;4.50;;;18.90;65.60;;;;;;6190143;23;20217;-88
2022/06/08 03:39:38;;;;;;;5.45;4.95;;;18.90;65.60;;;;;;6165158;23;20142;-88
2022/06/08 03:42:05;;;;;;;5.07;4.57;;;18.90;65.70;;;;;;6165703;23;20455;-87
2022/06/08 03:44:30;;;;;;;4.95;4.45;;;18.90;65.70;;;;;;6190074;23;20209;-88
2022/06/08 03:47:02;;;;;;;4.90;4.35;;;19.00;65.60;;;;;;6189706;23;20184;-88
2022/06/08 03:49:28;;;;;;;5.22;4.60;;;18.90;65.60;;;;;;6164797;23;20176;-87
2022/06/08 03:51:55;;;;;;;5.57;4.65;;;19.00;65.60;;;;;;6189951;23;20169;-88
2022/06/08 03:54:24;;;;;;;6.50;4.72;;;18.90;65.60;;;;;;6189713;23;20692;-87
2022/06/08 03:56:54;;;;;;;5.25;4.75;;;19.00;65.60;;;;;;6165245;23;20153;-88
2022/06/08 03:59:20;;;;;;;5.22;4.72;;;18.90;65.40;;;;;;6165417;23;20153;-88
2022/06/08 04:01:46;;;;;;;4.93;4.47;;;19.00;65.50;;;;;;6215561;23;20174;-88
2022/06/08 04:04:12;;;;;;;5.28;4.68;;;19.00;65.50;;;;;;6172399;23;20205;-88
2022/06/08 04:06:38;;;;;;;5.95;4.97;;;19.00;65.50;;;;;;6195658;23;20149;-87
2022/06/08 04:09:03;;;;;;;4.97;4.47;;;19.00;65.50;;;;;;6194889;23;20160;-88
2022/06/08 04:11:31;;;;;;;5.43;4.80;;;19.00;65.60;;;;;;6194994;23;20175;-87
2022/06/08 04:13:59;;;;;;;5.07;4.57;;;19.00;65.50;;;;;;6170238;23;20152;-87
2022/06/08 04:16:25;;;;;;;5.35;4.80;;;19.00;65.50;;;;;;6170480;23;20146;-88
2022/06/08 04:18:50;;;;;;;6.47;4.80;;;19.00;65.50;;;;;;6195587;23;20164;-88
2022/06/08 04:21:16;;;;;;;5.20;4.40;;;19.00;65.50;;;;;;6195317;23;20141;-88
2022/06/08 04:23:45;;;;;;;5.10;4.60;;;19.00;65.40;;;;;;6195164;23;20145;-87
2022/06/08 04:26:11;;;;;;;5.43;4.43;;;19.00;65.40;;;;;;6194932;23;20172;-88
2022/06/08 04:28:38;;;;;;;5.40;4.90;;;19.00;65.40;;;;;;6194825;23;20129;-87
2022/06/08 04:31:04;;;;;;;5.25;4.75;;;19.00;65.40;;;;;;6169988;23;20252;-88
2022/06/08 04:33:30;;;;;;;5.18;4.68;;;19.00;65.40;;;;;;6194807;23;20169;-87
2022/06/08 04:35:55;;;;;;;5.10;4.60;;;18.90;65.50;;;;;;6170010;23;20165;-88
2022/06/08 04:38:21;;;;;;;5.97;4.45;;;19.00;65.60;;;;;;6169842;23;20588;-87
2022/06/08 04:40:47;;;;;;;5.03;4.53;;;19.00;65.70;;;;;;6194526;23;20172;-88
2022/06/08 04:43:13;;;;;;;5.22;4.72;;;18.90;66.50;;;;;;6169705;23;20265;-87
2022/06/08 04:45:39;;;;;;;5.35;4.82;;;19.00;65.80;;;;;;6194743;23;20460;-88
2022/06/08 04:48:09;;;;;;;5.05;4.55;;;19.00;65.80;;;;;;6219440;23;20161;-87
2022/06/08 04:50:39;;;;;;;5.10;4.60;;;18.90;65.70;;;;;;6194582;23;20200;-88
2022/06/08 04:53:04;;;;;;;5.38;4.63;;;19.00;65.70;;;;;;6194911;23;20172;-88
2022/06/08 04:55:34;;;;;;;5.30;4.80;;;19.00;65.60;;;;;;6195011;23;20129;-88
2022/06/08 04:58:01;;;;;;;5.63;5.05;;;19.00;65.60;;;;;;6195437;23;20145;-88
2022/06/08 05:00:27;;;;;;;5.78;4.80;;;19.00;65.50;;;;;;6220269;23;20225;-90
2022/06/08 05:02:53;;;;;;;6.00;5.40;;;19.10;65.60;;;;;;6170623;23;20168;-88
2022/06/08 05:05:22;;;;;;;5.57;4.97;;;19.10;65.80;;;;;;6143808;23;20205;-88
2022/06/08 05:07:48;;;;;;;5.60;5.10;;;19.00;65.60;;;;;;6139406;23;20180;-87
2022/06/08 05:10:15;;;;;;;5.65;5.05;;;19.10;65.70;;;;;;6164761;23;20188;-87
2022/06/08 05:12:41;;;;;;;6.03;5.38;;;19.10;65.70;;;;;;6138326;23;20197;-87
2022/06/08 05:15:11;;;;;;;5.80;5.20;;;19.10;65.80;;;;;;6165103;23;20497;-88
2022/06/08 05:17:36;;;;;;;6.10;5.22;;;19.10;65.70;;;;;;6164831;23;20127;-88
2022/06/08 05:20:06;;;;;;;7.22;5.72;;;19.10;65.60;;;;;;6140807;23;20152;-89
2022/06/08 05:22:33;;;;;;;5.75;5.05;;;19.10;65.60;;;;;;6164562;23;20138;-88
2022/06/08 05:24:59;;;;;;;5.90;5.28;;;19.10;65.80;;;;;;6164649;23;20566;-88
2022/06/08 05:27:25;;;;;;;5.85;5.25;;;19.00;65.80;;;;;;6140105;23;20142;-87
2022/06/08 05:29:55;;;;;;;6.38;5.18;;;19.00;65.80;;;;;;6164832;23;20198;-88
2022/06/08 05:32:23;;;;;;;6.20;5.20;;;19.00;65.80;;;;;;6189671;23;20138;-88
2022/06/08 05:34:48;;;;;;;6.03;5.40;;;19.00;65.90;;;;;;6165161;23;20217;-87
2022/06/08 05:37:16;;;;;;;6.93;5.75;;;19.00;65.90;;;;;;6140721;23;20138;-87
2022/06/08 05:39:42;;;;;;;6.22;5.60;;;19.10;65.90;;;;;;6140709;23;20224;-88
2022/06/08 05:42:08;;;;;;;6.35;5.50;;;19.10;65.80;;;;;;6141472;23;20138;-88
2022/06/08 05:44:35;;;;;;;5.75;5.10;;;19.10;65.60;;;;;;6190882;23;20217;-87
2022/06/08 05:47:02;;;;;;;5.72;5.07;;;19.10;65.60;;;;;;6166450;23;20127;-88
2022/06/08 05:49:34;;;;;;;6.43;5.38;;;19.10;65.60;;;;;;6166036;23;20130;-87
2022/06/08 05:52:06;;;;;;;6.38;5.78;;;19.20;65.40;;;;;;6168186;23;20150;-87
2022/06/08 05:54:34;;;;;;;5.50;5.00;;;19.20;65.20;;;;;;6170131;23;20142;-88
2022/06/08 05:57:02;;;;;;;5.75;5.15;;;19.20;65.10;;;;;;6195353;23;20134;-87
2022/06/08 05:59:29;;;;;;;6.70;5.95;;;19.30;65.20;;;;;;6144372;23;20142;-88
2022/06/08 06:01:55;;;;;;;7.15;5.70;;;19.30;65.10;;;;;;6168458;23;20146;-88
2022/06/08 06:04:20;;;;;;;6.55;5.78;;;19.30;65.00;;;;;;6152111;23;20524;-88
2022/06/08 06:07:05;;;;;;;6.25;5.40;;;19.30;64.80;;;;;;6171798;23;20150;-87
2022/06/08 06:09:32;;;;;;;6.05;5.45;;;19.30;64.90;;;;;;6221189;23;20130;-87
2022/06/08 06:11:59;;;;;;;5.68;5.07;;;19.30;64.90;;;;;;6173177;23;20431;-87
2022/06/08 06:14:24;;;;;;;6.30;5.70;;;19.30;64.80;;;;;;6199375;23;20133;-87
2022/06/08 06:16:51;;;;;;;6.93;5.93;;;19.30;64.90;;;;;;6198739;23;20854;-87
2022/06/08 06:19:18;;;;;;;6.20;5.47;;;19.30;64.80;;;;;;6198393;23;20130;-87
2022/06/08 06:21:44;;;;;;;5.95;5.35;;;19.30;64.80;;;;;;6174168;23;20149;-88
2022/06/08 06:24:09;;;;;;;7.03;5.97;;;19.40;64.80;;;;;;6173608;23;20153;-88
2022/06/08 06:26:35;;;;;;;5.68;5.10;;;19.40;64.70;;;;;;6174009;23;20199;-87
2022/06/08 06:29:01;;;;;;;6.10;5.50;;;19.50;64.60;;;;;;6198843;23;20152;-87
2022/06/08 06:31:47;;;;;;;6.38;5.53;;;19.40;64.50;;;;;;6173508;23;20234;-87
2022/06/08 06:34:15;;;;;;;6.60;5.43;;;19.40;64.80;;;;;;6175367;23;20480;-87
2022/06/08 06:36:40;;;;;;;6.00;5.40;;;19.40;65.20;;;;;;6174130;23;20153;-87
2022/06/08 06:39:06;;;;;;;5.90;5.07;;;19.40;64.70;;;;;;6174518;23;20145;-87
2022/06/08 06:41:32;;;;;;;6.28;5.60;;;19.40;64.80;;;;;;6173116;23;20172;-88
2022/06/08 06:43:59;;;;;;;5.95;5.35;;;19.50;65.10;;;;;;6175025;23;20675;-88
2022/06/08 06:46:26;;;;;;;6.88;5.72;;;19.50;64.60;;;;;;6173263;23;20145;-88
2022/06/08 06:48:52;;;;;;;6.60;5.90;;;19.50;64.70;;;;;;6173123;23;20150;-89
2022/06/08 06:51:18;;;;;;;6.25;5.60;;;19.50;64.60;;;;;;6176271;23;20180;-88
2022/06/08 06:53:45;;;;;;;6.28;5.68;;;19.60;64.90;;;;;;6176676;23;20137;-89
2022/06/08 06:56:14;;;;;;;5.97;5.38;;;19.60;64.70;;;;;;6158692;23;20231;-88
2022/06/08 06:59:22;;;;;;;6.65;5.50;;;19.60;64.40;;;;;;6160899;23;20583;-88
2022/06/08 07:01:51;;;;;;;7.50;5.97;;;19.60;64.40;;;;;;6159640;23;20230;-89
2022/06/08 07:04:22;;;;;;;7.38;5.82;;;19.50;64.50;;;;;;6129565;23;20207;-88
2022/06/08 07:06:53;;;;;;;7.13;5.65;;;19.50;64.60;;;;;;6106078;23;20160;-89
2022/06/08 07:09:22;;;;;;;7.80;6.20;;;19.50;64.50;;;;;;6109570;23;20196;-89
2022/06/08 07:11:52;;;;;;;6.57;5.70;;;19.60;64.50;;;;;;6102980;23;20238;-87
2022/06/08 07:14:19;;;;;;;6.75;5.32;;;19.60;64.50;;;;;;6103655;23;20159;-89
2022/06/08 07:16:49;;;;;;;7.80;5.88;;;19.60;64.80;;;;;;6078814;23;20159;-89
2022/06/08 07:19:15;;;;;;;7.47;5.80;;;19.60;64.60;;;;;;6095829;23;20639;-88
2022/06/08 07:21:46;;;;;;;6.03;5.40;;;19.60;64.70;;;;;;6130029;23;20200;-88
2022/06/08 07:24:20;;;;;;;7.22;5.65;;;19.60;64.40;;;;;;6105562;23;20156;-90
2022/06/08 07:26:49;;;;;;;6.43;5.70;;;19.60;64.70;;;;;;6123912;23;20174;-89
2022/06/08 07:29:16;;;;;;;6.20;5.60;;;19.50;64.70;;;;;;6116795;23;20219;-88
2022/06/08 07:31:42;;;;;;;6.72;5.85;;;19.50;64.80;;;;;;6142191;23;20649;-88
2022/06/08 07:34:26;;;;;;;6.03;5.43;;;19.50;65.00;;;;;;6142233;23;20215;-89
2022/06/08 07:36:51;;;;;;;6.22;5.47;;;19.60;64.70;;;;;;6172652;23;20149;-89
2022/06/08 07:39:19;;;;;;;7.03;5.93;;;19.60;64.50;;;;;;6173526;23;20137;-89
2022/06/08 07:41:45;;;;;;;6.20;5.60;;;19.50;64.60;;;;;;6175321;23;20141;-89
2022/06/08 07:44:10;;;;;;;6.65;5.80;;;19.60;64.60;;;;;;6174191;23;20228;-89
2022/06/08 07:46:36;;;;;;;6.93;5.40;;;19.60;64.70;;;;;;6171699;23;20585;-89
2022/06/08 07:51:53;;;;;;;6.88;5.60;;;19.60;64.70;;;;;;6203086;23;20240;-89
2022/06/08 07:54:22;;;;;;;6.30;5.68;;;19.60;64.70;;;;;;6189842;23;20353;-89
2022/06/08 07:56:53;;;;;;;6.57;5.80;;;19.60;64.90;;;;;;6167287;23;20150;-89
2022/06/08 07:59:22;;;;;;;7.22;5.72;;;19.60;64.80;;;;;;6171251;23;20150;-89
2022/06/08 08:01:57;;;;;;;6.05;5.20;;;19.60;64.90;;;;;;6170435;23;20142;-89
2022/06/08 08:04:23;;;;;;;7.55;5.93;;;19.60;64.60;;;;;;6165121;23;20194;-88
2022/06/08 08:06:53;;;;;;;6.57;5.63;;;19.60;64.70;;;;;;6165147;23;20154;-89
2022/06/08 08:09:22;;;;;;;7.03;5.50;;;19.60;64.50;;;;;;6130853;23;20152;-89
2022/06/08 08:11:51;;;;;;;6.82;5.78;;;19.70;64.60;;;;;;6082832;23;20183;-89
2022/06/08 08:14:20;;;;;;;6.38;5.72;;;19.60;64.40;;;;;;6082694;23;20152;-89
2022/06/08 08:16:46;;;;;;;6.15;5.53;;;19.70;64.60;;;;;;6103612;23;20152;-88
2022/06/08 08:19:17;;;;;;;6.47;5.75;;;19.70;64.50;;;;;;6104071;23;20152;-89
2022/06/08 08:21:46;;;;;;;7.30;6.28;;;19.70;64.50;;;;;;6079759;23;20224;-89
2022/06/08 08:24:19;;;;;;;7.72;5.60;;;19.70;64.50;;;;;;6105979;23;20160;-89
2022/06/08 08:26:51;;;;;;;7.18;5.40;;;19.70;64.50;;;;;;6132038;23;20174;-89
2022/06/08 08:29:17;;;;;;;6.15;5.10;;;19.70;64.50;;;;;;6107049;23;20147;-89
2022/06/08 08:31:47;;;;;;;7.43;5.80;;;19.70;64.30;;;;;;6107852;23;20202;-89
2022/06/08 08:34:15;;;;;;;8.00;5.50;;;19.70;64.40;;;;;;6132887;23;20591;-89
2022/06/08 08:36:42;;;;;;;7.18;6.18;;;19.70;64.50;;;;;;6107522;23;20154;-89
2022/06/08 08:39:08;;;;;;;7.00;5.90;;;19.70;64.30;;;;;;6111462;23;20178;-89
2022/06/08 08:44:50;;;;;;;6.88;5.82;;;19.70;64.60;;;;;;6140458;23;20196;-88
2022/06/08 08:47:43;;;;;;;7.03;5.85;;;19.70;64.60;;;;;;6097492;23;20156;-86
2022/06/08 08:50:27;;;;;;;7.13;5.68;;;19.80;64.50;;;;;;6083921;23;20187;-87
2022/06/08 08:53:40;;;;;;;6.75;5.85;;;19.70;64.30;;;;;;6020826;23;20246;-87
2022/06/08 08:56:35;;;;;;;7.18;6.07;;;19.80;64.30;;;;;;5903585;24;20161;-88
2022/06/08 08:59:14;;;;;;;6.82;5.88;;;19.70;64.40;;;;;;5903378;24;20180;-89
2022/06/08 09:01:55;;;;;;;7.53;5.78;;;19.70;64.40;;;;;;5881978;24;20171;-89
2022/06/08 09:04:27;;;;;;;7.40;5.60;;;19.80;64.10;;;;;;5868395;24;20199;-89
2022/06/08 09:07:01;;;;;;;6.30;5.60;;;19.90;64.10;;;;;;5866687;24;20167;-88
2022/06/08 09:09:31;;;;;;;7.45;5.65;;;19.90;64.10;;;;;;5890324;24;20241;-89
2022/06/08 09:11:57;;;;;;;8.43;5.50;;;19.90;64.00;;;;;;5846220;24;20187;-88
2022/06/08 09:15:14;;;;;;;6.63;5.50;;;19.90;63.80;;;;;;5869960;24;20158;-89
2022/06/08 09:17:56;;;;;;;9.45;5.88;;;19.90;63.80;;;;;;5861721;24;20168;-89
2022/06/08 09:20:35;;;;;;;9.45;5.95;;;19.90;64.50;;;;;;5948299;24;20161;-89
2022/06/08 09:23:19;;;;;;;9.52;5.57;;;19.90;63.60;;;;;;5935394;24;20257;-89
2022/06/08 09:25:48;;;;;;;8.93;5.65;;;20.00;63.60;;;;;;5899671;24;20158;-89
2022/06/08 09:28:29;;;;;;;6.53;5.43;;;19.90;63.60;;;;;;5975362;24;20160;-88
2022/06/08 09:30:58;;;;;;;7.05;5.50;;;19.90;63.70;;;;;;5958457;24;20180;-89
2022/06/08 09:33:37;;;;;;;7.60;5.72;;;20.00;63.80;;;;;;5978937;23;20158;-87
2022/06/08 09:36:08;;;;;;;7.80;5.60;;;20.00;63.70;;;;;;6108445;23;20144;-88
2022/06/08 09:38:36;;;;;;;7.43;5.60;;;20.00;64.00;;;;;;6086624;23;20152;-88
2022/06/08 09:41:25;;;;;;;8.93;5.75;;;19.90;63.80;;;;;;6080465;23;20246;-90
2022/06/08 09:44:19;;;;;;;7.25;6.28;;;19.90;64.10;;;;;;6078754;23;20163;-88
2022/06/08 09:53:12;;;;;;;7.57;5.72;;;19.90;64.10;;;;;;6108491;23;20182;-90
2022/06/08 09:55:49;;;;;;;7.63;5.70;;;19.90;64.50;;;;;;6103911;23;20148;-87
2022/06/08 09:58:41;;;;;;;6.95;5.80;;;19.90;64.30;;;;;;6056529;23;20235;-87
2022/06/08 10:01:18;;;;;;;10.25;5.85;;;19.90;63.80;;;;;;6061435;23;20199;-86
2022/06/08 10:04:20;;;;;;;11.00;6.00;;;20.00;63.80;;;;;;6094026;23;20518;-86
2022/06/08 10:07:03;;;;;;;9.57;5.97;;;20.00;63.70;;;;;;6144996;23;20170;-86
2022/06/08 10:10:08;;;;;;;6.95;5.68;;;20.00;63.40;;;;;;6176819;23;20589;-86
2022/06/08 10:12:57;;;;;;;10.60;5.50;;;20.10;63.20;;;;;;6181215;23;20141;-86
2022/06/08 10:15:41;;;;;;;13.55;5.63;;;20.10;63.30;;;;;;6148866;23;20135;-86
2022/06/08 10:18:31;;;;;;;13.52;5.85;;;20.20;63.10;;;;;;6134498;23;20206;-86
2022/06/08 10:21:03;;;;;;;7.60;5.72;;;20.10;63.20;;;;;;6156465;23;20135;-85
2022/06/08 10:23:39;;;;;;;9.40;5.63;;;20.10;62.90;;;;;;6127013;23;20202;-86
2022/06/08 10:26:22;;;;;;;5.95;5.22;;;20.10;63.00;;;;;;6108065;23;20614;-86
2022/06/08 10:28:58;;;;;;;8.35;5.72;;;20.10;62.90;;;;;;6131869;23;20644;-86
2022/06/08 10:31:38;;;;;;;10.15;5.38;;;20.20;62.90;;;;;;6109262;23;20175;-86
2022/06/08 10:34:23;;;;;;;10.23;5.63;;;20.10;62.80;;;;;;6110452;23;20147;-86
2022/06/08 10:36:54;;;;;;;8.20;5.47;;;20.10;62.90;;;;;;6112486;23;20143;-86
2022/06/08 10:39:23;;;;;;;6.53;5.25;;;20.10;62.70;;;;;;6108776;23;20633;-86
2022/06/08 10:44:58;;;;;;;7.15;5.20;;;20.10;62.70;;;;;;6134087;23;20136;-86
2022/06/08 10:47:40;;;;;;;8.90;5.50;;;20.10;62.70;;;;;;6108333;23;20139;-86
2022/06/08 10:50:15;;;;;;;9.65;6.47;;;20.10;62.70;;;;;;6180152;23;20178;-86
2022/06/08 10:52:43;;;;;;;6.35;5.10;;;20.10;62.80;;;;;;6167464;23;20233;-86
2022/06/08 10:55:30;;;;;;;9.23;5.50;;;20.10;62.70;;;;;;6152787;23;20146;-86
2022/06/08 10:58:07;;;;;;;9.07;5.32;;;20.10;62.70;;;;;;6193447;23;20184;-86
2022/06/08 11:00:52;;;;;;;7.13;5.60;;;20.10;62.60;;;;;;6142900;23;20211;-85
2022/06/08 11:03:36;;;;;;;6.97;5.35;;;20.10;62.70;;;;;;6194007;23;20563;-87
2022/06/08 11:06:02;;;;;;;8.63;5.50;;;20.10;62.70;;;;;;6185809;23;20193;-85
2022/06/08 11:08:51;;;;;;;8.73;5.55;;;20.00;62.40;;;;;;6192762;23;20154;-86
2022/06/08 11:11:49;;;;;;;7.70;6.03;;;20.00;62.20;;;;;;6169548;23;20573;-86
2022/06/08 11:14:32;;;;;;;7.05;5.40;;;20.10;62.10;;;;;;6193371;23;20142;-86
2022/06/08 11:17:02;;;;;;;7.60;5.65;;;20.10;62.40;;;;;;6217701;23;20130;-85
2022/06/08 11:19:28;;;;;;;6.45;4.35;;;20.10;62.60;;;;;;6168613;23;20204;-86
2022/06/08 11:21:57;;;;;;;7.13;4.88;;;20.00;61.80;;;;;;6210278;23;20138;-85
2022/06/08 11:24:30;;;;;;;5.78;4.70;;;20.10;61.60;;;;;;6173232;23;20204;-88
2022/06/08 11:27:20;;;;;;;7.90;5.50;;;20.20;61.50;;;;;;6199305;23;20140;-86
2022/06/08 11:29:49;;;;;;;6.72;5.50;;;20.10;61.80;;;;;;6223378;23;20129;-86
2022/06/08 11:32:38;;;;;;;11.93;6.05;;;20.10;62.40;;;;;;6172740;23;20195;-86
2022/06/08 11:35:22;;;;;;;6.47;5.40;;;20.10;62.20;;;;;;6176515;23;20138;-86
2022/06/08 11:38:16;;;;;;;9.93;5.22;;;20.10;62.40;;;;;;6200447;23;20145;-86
2022/06/08 11:40:42;;;;;;;8.27;5.63;;;20.10;62.10;;;;;;6201835;23;20141;-86
2022/06/08 11:43:29;;;;;;;7.18;5.35;;;20.10;62.50;;;;;;6173135;23;20169;-86
2022/06/08 11:45:56;;;;;;;7.03;5.15;;;20.10;61.70;;;;;;6173720;23;20173;-85
2022/06/08 11:48:26;;;;;;;7.05;5.45;;;20.10;61.40;;;;;;6173088;23;20202;-85
2022/06/08 11:50:58;;;;;;;11.05;5.93;;;20.10;62.40;;;;;;6198081;23;20169;-85
2022/06/08 11:53:31;;;;;;;8.00;5.32;;;20.10;62.40;;;;;;6198004;23;20454;-86
2022/06/08 11:56:20;;;;;;;6.45;5.78;;;20.00;62.20;;;;;;6174155;23;20576;-85
2022/06/08 11:58:49;;;;;;;7.30;5.13;;;20.10;61.80;;;;;;6201194;23;20243;-87
2022/06/08 12:01:22;;;;;;;7.63;5.38;;;20.10;61.80;;;;;;6179443;23;20172;-86
2022/06/08 12:03:52;;;;;;;9.27;5.22;;;20.10;61.90;;;;;;6201748;23;20133;-87
2022/06/08 12:06:22;;;;;;;6.22;4.88;;;20.10;63.10;;;;;;6178850;23;20620;-86
2022/06/08 12:08:59;;;;;;;9.88;5.82;;;20.00;62.20;;;;;;6146617;23;20156;-86
2022/06/08 12:11:28;;;;;;;7.30;5.72;;;20.00;62.70;;;;;;6169229;23;20636;-86
2022/06/08 12:14:04;;;;;;;8.68;5.22;;;20.00;62.70;;;;;;6167059;23;20127;-86
2022/06/08 12:16:33;;;;;;;7.00;5.05;;;20.00;62.60;;;;;;6167299;23;20130;-86
2022/06/08 12:19:05;;;;;;;9.00;5.40;;;19.90;62.50;;;;;;6166580;23;20141;-86
2022/06/08 12:21:34;;;;;;;7.38;5.45;;;19.90;62.80;;;;;;6142505;23;20665;-86
2022/06/08 12:24:03;;;;;;;7.25;5.30;;;19.90;62.70;;;;;;6166830;23;20138;-86
2022/06/08 12:26:52;;;;;;;7.80;5.20;;;20.00;62.70;;;;;;6168421;23;20146;-86
2022/06/08 12:29:25;;;;;;;7.55;4.88;;;19.90;62.90;;;;;;6139418;23;20222;-86
2022/06/08 12:32:00;;;;;;;5.95;5.25;;;19.90;62.60;;;;;;6142272;23;20208;-86
2022/06/08 12:34:35;;;;;;;6.70;5.50;;;19.90;62.80;;;;;;6144148;23;20212;-87
2022/06/08 12:37:22;;;;;;;6.20;5.07;;;19.90;62.80;;;;;;6145166;23;20153;-86
2022/06/08 12:39:49;;;;;;;5.93;4.95;;;19.90;62.50;;;;;;6191336;23;20179;-86
2022/06/08 12:42:31;;;;;;;8.32;5.70;;;19.90;62.60;;;;;;6135798;23;20146;-86
2022/06/08 12:44:58;;;;;;;7.68;5.00;;;19.90;62.50;;;;;;6156459;23;20137;-86
2022/06/08 12:47:28;;;;;;;9.82;5.50;;;20.00;62.50;;;;;;6161356;23;20162;-87
2022/06/08 12:49:57;;;;;;;6.50;5.18;;;20.00;62.50;;;;;;6142292;23;20165;-87
2022/06/08 12:52:24;;;;;;;8.65;5.38;;;20.00;62.50;;;;;;6166152;23;20145;-86
2022/06/08 12:54:55;;;;;;;7.25;5.50;;;20.00;62.20;;;;;;6141696;23;20152;-86
2022/06/08 12:57:25;;;;;;;6.57;4.75;;;20.10;62.30;;;;;;6191468;23;20158;-86
2022/06/08 12:59:53;;;;;;;5.75;4.88;;;20.00;62.00;;;;;;6143153;23;20721;-86
2022/06/08 13:02:21;;;;;;;7.13;5.47;;;20.00;62.10;;;;;;6142944;23;20134;-86
2022/06/08 13:04:47;;;;;;;5.78;5.03;;;20.00;62.30;;;;;;6196875;23;20266;-86
2022/06/08 13:07:15;;;;;;;7.50;4.97;;;20.10;61.60;;;;;;6200107;23;20195;-87
2022/06/08 13:09:41;;;;;;;5.93;4.95;;;20.10;61.60;;;;;;6177893;23;20640;-87
2022/06/08 13:12:10;;;;;;;6.20;4.88;;;20.10;61.60;;;;;;6199207;23;20164;-86
2022/06/08 13:14:37;;;;;;;8.95;5.13;;;20.10;61.00;;;;;;6174548;23;20165;-87
2022/06/08 13:17:03;;;;;;;7.57;5.25;;;20.10;61.10;;;;;;6173505;23;20152;-86
2022/06/08 13:19:29;;;;;;;6.07;4.70;;;20.10;60.90;;;;;;6224551;23;20122;-86
2022/06/08 13:21:56;;;;;;;6.43;5.60;;;20.20;60.80;;;;;;6178678;23;20145;-86
2022/06/08 13:24:57;;;;;;;6.55;4.50;;;20.20;61.20;;;;;;6204142;23;20138;-87
2022/06/08 14:49:35;;;;;;;4.55;4.13;;;20.30;59.10;;;;;;6250582;22;21086;-86
2022/06/08 14:52:02;;;;;;;4.15;3.38;;;20.20;59.40;;;;;;6197412;23;20219;-86
2022/06/08 14:54:31;;;;;;;4.15;3.60;;;20.20;59.20;;;;;;6173400;23;20176;-86
2022/06/08 14:57:12;;;;;;;6.30;4.18;;;20.20;59.10;;;;;;6197454;23;20465;-87